Mastronikos — SVA6956 — position and weather

sailwx.info

Track history (hours):
 
Tides and Currents Weather Stations Pressure Air Temp Water Temp Dewpoint Dewpoint Depression Visibility Wind Speed Wind Dir Waves Ship Positions

Mastronikos

Last reported at 2018-Jul-18 07:52 UTC. Time now 2018-Jul-19 22:59 UTC.
Position N 37°58' E 024°09'.

Length 81 m.

Type: Cargo ship. MMSI: 239943900.

Date/timePositionNaut miles runAvg speedWind from/ knotsBaromVisibWave heightAir tempDewpointWater temp
2018-Jul-18 07:52N 37°58' E 024°09'2 4.6
2018-Jul-18 07:30N 37°57' E 024°08'21 5.4
2018-Jul-18 03:39N 37°38' E 023°58'1 7.0
2018-Jul-18 03:27N 37°38' E 023°56'3 6.9
2018-Jul-18 02:59N 37°38' E 023°52'3 6.9
2018-Jul-18 02:30N 37°38' E 023°48'3 6.5
2018-Jul-18 02:01N 37°39' E 023°44'3 6.6
2018-Jul-18 01:30N 37°42' E 023°41'4 7.1
2018-Jul-18 01:00N 37°45' E 023°39'4 7.2
2018-Jul-18 00:30N 37°48' E 023°37'3 6.5
2018-Jul-18 00:00N 37°49' E 023°33'4 7.1
2018-Jul-17 23:30N 37°50' E 023°29'3 7.0
2018-Jul-17 23:00N 37°50' E 023°24'4 7.2
2018-Jul-17 22:30N 37°51' E 023°20'4 7.4
2018-Jul-17 22:00N 37°52' E 023°15'4 7.6
2018-Jul-17 21:30N 37°52' E 023°11'4 7.4
2018-Jul-17 21:00N 37°53' E 023°06'4 7.1
2018-Jul-17 20:30N 37°54' E 023°02'4 5.2
2018-Jul-17 19:48N 37°57' E 022°58'1 4.9
2018-Jul-17 19:31N 37°57' E 022°57'1 1.5
2018-Jul-17 19:00N 37°57' E 022°56'4 8.2
2018-Jul-17 18:30N 38°00' E 022°52'4 8.5
2018-Jul-17 18:00N 38°03' E 022°48'4 8.5
2018-Jul-17 17:30N 38°07' E 022°46'4 9.0
2018-Jul-17 17:00N 38°11' E 022°42'6 9.0
2018-Jul-17 16:22N 38°15' E 022°38'3 7.9
2018-Jul-17 15:57N 38°19' E 022°39'3 0.1
2018-Jul-16 17:51N 38°17' E 022°40'3 8.5
2018-Jul-16 17:27N 38°13' E 022°41'4 8.5
2018-Jul-16 16:59N 38°09' E 022°42'4 9.0
2018-Jul-16 16:30N 38°05' E 022°44'5 8.8
2018-Jul-16 15:59N 38°01' E 022°46'0 0.7
2018-Jul-16 15:30N 38°01' E 022°45'0 0.0
2018-Jul-16 14:57N 38°01' E 022°45'0 0.0
2018-Jul-16 14:30N 38°01' E 022°45'0 0.0
2018-Jul-16 14:00N 38°01' E 022°45'0 0.0
2018-Jul-16 13:30N 38°01' E 022°45'0 0.0
2018-Jul-16 12:55N 38°01' E 022°45'0 0.0
2018-Jul-16 12:10N 38°01' E 022°45'0 0.0
2018-Jul-16 10:21N 38°01' E 022°45'0 0.0
2018-Jul-16 09:47N 38°01' E 022°45'0 0.0
2018-Jul-16 09:26N 38°01' E 022°45'0 0.0
2018-Jul-16 09:00N 38°01' E 022°45'0 0.0
2018-Jul-16 08:30N 38°01' E 022°45'0 0.0
2018-Jul-16 08:00N 38°01' E 022°45'0 0.0
2018-Jul-16 07:30N 38°01' E 022°45'0 0.0
2018-Jul-16 07:00N 38°01' E 022°45'0 0.0
2018-Jul-16 06:30N 38°01' E 022°45'0 0.0
2018-Jul-16 06:00N 38°01' E 022°45'0 0.0
2018-Jul-16 05:27N 38°01' E 022°45'0 0.0
2018-Jul-16 05:00N 38°01' E 022°45'0 0.0
2018-Jul-16 04:29N 38°01' E 022°45'0 0.0
2018-Jul-16 04:00N 38°01' E 022°45'0 0.0
2018-Jul-16 03:30N 38°01' E 022°45'0 0.0
2018-Jul-16 03:00N 38°01' E 022°45'0 0.0
2018-Jul-16 02:29N 38°01' E 022°45'0 0.0
2018-Jul-16 01:59N 38°01' E 022°45'0 0.0
2018-Jul-16 01:30N 38°01' E 022°45'0 0.0
2018-Jul-16 01:00N 38°01' E 022°45'0 0.0
2018-Jul-16 00:28N 38°01' E 022°45'0 0.0
2018-Jul-16 00:00N 38°01' E 022°45'0 0.0
2018-Jul-15 23:30N 38°01' E 022°45'0 0.0
2018-Jul-15 23:00N 38°01' E 022°45'0 0.0
2018-Jul-15 22:30N 38°01' E 022°45'0 0.0
2018-Jul-15 22:00N 38°01' E 022°45'0 0.0
2018-Jul-15 21:30N 38°01' E 022°45'0 0.0
2018-Jul-15 21:00N 38°01' E 022°45'0 0.0
2018-Jul-15 20:30N 38°01' E 022°45'0 0.0
2018-Jul-15 20:00N 38°01' E 022°45'0 0.0
2018-Jul-15 19:31N 38°01' E 022°45'0 0.0
2018-Jul-15 18:59N 38°01' E 022°45'0 0.0
2018-Jul-15 18:31N 38°01' E 022°45'0 0.0
2018-Jul-15 18:00N 38°01' E 022°45'0 0.0
2018-Jul-15 17:30N 38°01' E 022°45'0 0.0
2018-Jul-15 17:00N 38°01' E 022°45'0 0.0
2018-Jul-15 16:28N 38°01' E 022°45'0 0.0
2018-Jul-15 15:22N 38°01' E 022°45'0 0.0
2018-Jul-15 10:21N 38°01' E 022°45'0 0.0
2018-Jul-15 09:48N 38°01' E 022°45'0 0.0
2018-Jul-15 09:30N 38°01' E 022°45'0 0.0
2018-Jul-15 09:00N 38°01' E 022°45'0 0.0
2018-Jul-15 08:28N 38°01' E 022°45'0 0.0
2018-Jul-15 08:00N 38°01' E 022°45'0 0.0
2018-Jul-15 07:29N 38°01' E 022°45'0 0.0
2018-Jul-15 07:00N 38°01' E 022°45'0 0.1
2018-Jul-15 06:30N 38°01' E 022°45'2 3.5
2018-Jul-15 06:00N 38°00' E 022°47'4 8.1
2018-Jul-15 05:29N 37°59' E 022°52'4 8.3
2018-Jul-15 05:01N 37°57' E 022°57'2 3.3
2018-Jul-15 04:18N 37°56' E 022°59'1 2.6
2018-Jul-15 04:00N 37°55' E 023°00'2 4.8
2018-Jul-15 03:30N 37°54' E 023°03'3 6.6
2018-Jul-15 03:00N 37°53' E 023°07'4 7.7
2018-Jul-15 02:30N 37°53' E 023°11'1 2.2
2018-Jul-15 02:00N 37°53' E 023°13'3 5.3
2018-Jul-15 01:30N 37°53' E 023°09'3 6.6
2018-Jul-15 01:00N 37°53' E 023°14'3 6.7
2018-Jul-15 00:30N 37°52' E 023°18'4 7.0
2018-Jul-15 00:00N 37°51' E 023°22'4 7.1
2018-Jul-14 23:30N 37°50' E 023°26'4 7.2
2018-Jul-14 23:00N 37°50' E 023°31'4 7.0
2018-Jul-14 22:30N 37°50' E 023°35'3 6.4
2018-Jul-14 22:00N 37°50' E 023°39'3 6.9
2018-Jul-14 21:30N 37°47' E 023°41'3 6.9
2018-Jul-14 21:00N 37°44' E 023°44'4 7.8
2018-Jul-14 20:30N 37°40' E 023°46'10 8.3
2018-Jul-14 19:19N 37°38' E 023°58'  
2018-Jul-10 19:43N 38°21' E 023°44'2 9.1
2018-Jul-10 19:31N 38°21' E 023°47'19 0.6
2018-Jul-09 13:28N 38°10' E 024°05'4 9.0
2018-Jul-09 12:58N 38°05' E 024°06'4 9.2
2018-Jul-09 12:29N 38°02' E 024°10'7 8.6
2018-Jul-09 11:40N 37°57' E 024°16'11 0.5
2018-Jul-08 10:37N 37°48' E 024°09'10 8.1
2018-Jul-08 09:22N 37°39' E 024°03'6 8.8
2018-Jul-08 08:41N 37°38' E 023°55'2 8.0
2018-Jul-08 08:28N 37°38' E 023°53'4 7.8
2018-Jul-08 08:00N 37°39' E 023°49'  
Track history (hours):
 
Tides and Currents Weather Stations Pressure Air Temp Water Temp Dewpoint Dewpoint Depression Visibility Wind Speed Wind Dir Waves Ship Positions

Mastronikos

Last reported at 2018-Jul-18 07:52 UTC. Time now 2018-Jul-19 22:59 UTC.
Position N 37°58' E 024°09'.

Length 81 m.

Type: Cargo ship. MMSI: 239943900.

Date/timePositionNaut miles runAvg speedWind from/ knotsBaromVisibWave heightAir tempDewpointWater temp
2018-Jul-18 07:52N 37°58' E 024°09'2 4.6
2018-Jul-18 07:30N 37°57' E 024°08'21 5.4
2018-Jul-18 03:39N 37°38' E 023°58'1 7.0
2018-Jul-18 03:27N 37°38' E 023°56'3 6.9
2018-Jul-18 02:59N 37°38' E 023°52'3 6.9
2018-Jul-18 02:30N 37°38' E 023°48'3 6.5
2018-Jul-18 02:01N 37°39' E 023°44'3 6.6
2018-Jul-18 01:30N 37°42' E 023°41'4 7.1
2018-Jul-18 01:00N 37°45' E 023°39'4 7.2
2018-Jul-18 00:30N 37°48' E 023°37'3 6.5
2018-Jul-18 00:00N 37°49' E 023°33'4 7.1
2018-Jul-17 23:30N 37°50' E 023°29'3 7.0
2018-Jul-17 23:00N 37°50' E 023°24'4 7.2
2018-Jul-17 22:30N 37°51' E 023°20'4 7.4
2018-Jul-17 22:00N 37°52' E 023°15'4 7.6
2018-Jul-17 21:30N 37°52' E 023°11'4 7.4
2018-Jul-17 21:00N 37°53' E 023°06'4 7.1
2018-Jul-17 20:30N 37°54' E 023°02'4 5.2
2018-Jul-17 19:48N 37°57' E 022°58'1 4.9
2018-Jul-17 19:31N 37°57' E 022°57'1 1.5
2018-Jul-17 19:00N 37°57' E 022°56'4 8.2
2018-Jul-17 18:30N 38°00' E 022°52'4 8.5
2018-Jul-17 18:00N 38°03' E 022°48'4 8.5
2018-Jul-17 17:30N 38°07' E 022°46'4 9.0
2018-Jul-17 17:00N 38°11' E 022°42'6 9.0
2018-Jul-17 16:22N 38°15' E 022°38'3 7.9
2018-Jul-17 15:57N 38°19' E 022°39'3 0.1
2018-Jul-16 17:51N 38°17' E 022°40'3 8.5
2018-Jul-16 17:27N 38°13' E 022°41'4 8.5
2018-Jul-16 16:59N 38°09' E 022°42'4 9.0
2018-Jul-16 16:30N 38°05' E 022°44'5 8.8
2018-Jul-16 15:59N 38°01' E 022°46'0 0.7
2018-Jul-16 15:30N 38°01' E 022°45'0 0.0
2018-Jul-16 14:57N 38°01' E 022°45'0 0.0
2018-Jul-16 14:30N 38°01' E 022°45'0 0.0
2018-Jul-16 14:00N 38°01' E 022°45'0 0.0
2018-Jul-16 13:30N 38°01' E 022°45'0 0.0
2018-Jul-16 12:55N 38°01' E 022°45'0 0.0
2018-Jul-16 12:10N 38°01' E 022°45'0 0.0
2018-Jul-16 10:21N 38°01' E 022°45'0 0.0
2018-Jul-16 09:47N 38°01' E 022°45'0 0.0
2018-Jul-16 09:26N 38°01' E 022°45'0 0.0
2018-Jul-16 09:00N 38°01' E 022°45'0 0.0
2018-Jul-16 08:30N 38°01' E 022°45'0 0.0
2018-Jul-16 08:00N 38°01' E 022°45'0 0.0
2018-Jul-16 07:30N 38°01' E 022°45'0 0.0
2018-Jul-16 07:00N 38°01' E 022°45'0 0.0
2018-Jul-16 06:30N 38°01' E 022°45'0 0.0
2018-Jul-16 06:00N 38°01' E 022°45'0 0.0
2018-Jul-16 05:27N 38°01' E 022°45'0 0.0
2018-Jul-16 05:00N 38°01' E 022°45'0 0.0
2018-Jul-16 04:29N 38°01' E 022°45'0 0.0
2018-Jul-16 04:00N 38°01' E 022°45'0 0.0
2018-Jul-16 03:30N 38°01' E 022°45'0 0.0
2018-Jul-16 03:00N 38°01' E 022°45'0 0.0
2018-Jul-16 02:29N 38°01' E 022°45'0 0.0
2018-Jul-16 01:59N 38°01' E 022°45'0 0.0
2018-Jul-16 01:30N 38°01' E 022°45'0 0.0
2018-Jul-16 01:00N 38°01' E 022°45'0 0.0
2018-Jul-16 00:28N 38°01' E 022°45'0 0.0
2018-Jul-16 00:00N 38°01' E 022°45'0 0.0
2018-Jul-15 23:30N 38°01' E 022°45'0 0.0
2018-Jul-15 23:00N 38°01' E 022°45'0 0.0
2018-Jul-15 22:30N 38°01' E 022°45'0 0.0
2018-Jul-15 22:00N 38°01' E 022°45'0 0.0
2018-Jul-15 21:30N 38°01' E 022°45'0 0.0
2018-Jul-15 21:00N 38°01' E 022°45'0 0.0
2018-Jul-15 20:30N 38°01' E 022°45'0 0.0
2018-Jul-15 20:00N 38°01' E 022°45'0 0.0
2018-Jul-15 19:31N 38°01' E 022°45'0 0.0
2018-Jul-15 18:59N 38°01' E 022°45'0 0.0
2018-Jul-15 18:31N 38°01' E 022°45'0 0.0
2018-Jul-15 18:00N 38°01' E 022°45'0 0.0
2018-Jul-15 17:30N 38°01' E 022°45'0 0.0
2018-Jul-15 17:00N 38°01' E 022°45'0 0.0
2018-Jul-15 16:28N 38°01' E 022°45'0 0.0
2018-Jul-15 15:22N 38°01' E 022°45'0 0.0
2018-Jul-15 10:21N 38°01' E 022°45'0 0.0
2018-Jul-15 09:48N 38°01' E 022°45'0 0.0
2018-Jul-15 09:30N 38°01' E 022°45'0 0.0
2018-Jul-15 09:00N 38°01' E 022°45'0 0.0
2018-Jul-15 08:28N 38°01' E 022°45'0 0.0
2018-Jul-15 08:00N 38°01' E 022°45'0 0.0
2018-Jul-15 07:29N 38°01' E 022°45'0 0.0
2018-Jul-15 07:00N 38°01' E 022°45'0 0.1
2018-Jul-15 06:30N 38°01' E 022°45'2 3.5
2018-Jul-15 06:00N 38°00' E 022°47'4 8.1
2018-Jul-15 05:29N 37°59' E 022°52'4 8.3
2018-Jul-15 05:01N 37°57' E 022°57'2 3.3
2018-Jul-15 04:18N 37°56' E 022°59'1 2.6
2018-Jul-15 04:00N 37°55' E 023°00'2 4.8
2018-Jul-15 03:30N 37°54' E 023°03'3 6.6
2018-Jul-15 03:00N 37°53' E 023°07'4 7.7
2018-Jul-15 02:30N 37°53' E 023°11'1 2.2
2018-Jul-15 02:00N 37°53' E 023°13'3 5.3
2018-Jul-15 01:30N 37°53' E 023°09'3 6.6
2018-Jul-15 01:00N 37°53' E 023°14'3 6.7
2018-Jul-15 00:30N 37°52' E 023°18'4 7.0
2018-Jul-15 00:00N 37°51' E 023°22'4 7.1
2018-Jul-14 23:30N 37°50' E 023°26'4 7.2
2018-Jul-14 23:00N 37°50' E 023°31'4 7.0
2018-Jul-14 22:30N 37°50' E 023°35'3 6.4
2018-Jul-14 22:00N 37°50' E 023°39'3 6.9
2018-Jul-14 21:30N 37°47' E 023°41'3 6.9
2018-Jul-14 21:00N 37°44' E 023°44'4 7.8
2018-Jul-14 20:30N 37°40' E 023°46'10 8.3
2018-Jul-14 19:19N 37°38' E 023°58'  
2018-Jul-10 19:43N 38°21' E 023°44'2 9.1
2018-Jul-10 19:31N 38°21' E 023°47'19 0.6
2018-Jul-09 13:28N 38°10' E 024°05'4 9.0
2018-Jul-09 12:58N 38°05' E 024°06'4 9.2
2018-Jul-09 12:29N 38°02' E 024°10'7 8.6
2018-Jul-09 11:40N 37°57' E 024°16'11 0.5
2018-Jul-08 10:37N 37°48' E 024°09'10 8.1
2018-Jul-08 09:22N 37°39' E 024°03'6 8.8
2018-Jul-08 08:41N 37°38' E 023°55'2 8.0
2018-Jul-08 08:28N 37°38' E 023°53'4 7.8
2018-Jul-08 08:00N 37°39' E 023°49'  

Dump ship's entire track history